createdAt,value
2023-01-06T00:01:15.093Z,2.38
2023-01-06T00:03:42.067Z,2.50
2023-01-06T00:06:12.423Z,2.70
2023-01-06T00:08:42.965Z,2.67
2023-01-06T00:11:15.366Z,3.25
2023-01-06T00:13:42.095Z,2.40
2023-01-06T00:16:15.295Z,2.30
2023-01-06T00:18:42.923Z,2.55
2023-01-06T00:21:11.059Z,2.50
2023-01-06T00:23:38.054Z,2.35
2023-01-06T00:26:06.388Z,2.78
2023-01-06T00:28:35.370Z,2.63
2023-01-06T00:31:10.487Z,2.40
2023-01-06T00:33:37.732Z,2.30
2023-01-06T00:36:08.146Z,2.10
2023-01-06T00:38:38.226Z,2.00
2023-01-06T00:41:27.000Z,2.00
2023-01-06T00:43:53.732Z,2.20
2023-01-06T00:46:25.529Z,1.95
2023-01-06T00:49:04.175Z,2.10
2023-01-06T00:51:34.248Z,1.90
2023-01-06T00:54:01.222Z,1.67
2023-01-06T00:56:27.890Z,1.70
2023-01-06T00:58:54.630Z,1.80
2023-01-06T01:01:21.506Z,1.67
2023-01-06T01:03:48.224Z,1.75
2023-01-06T01:06:17.109Z,1.50
2023-01-06T01:08:43.889Z,1.50
2023-01-06T01:11:32.362Z,1.40
2023-01-06T01:13:59.164Z,1.25
2023-01-06T01:16:28.061Z,1.60
2023-01-06T01:18:54.791Z,1.55
2023-01-06T01:21:21.497Z,1.30
2023-01-06T01:23:48.168Z,1.75
2023-01-06T01:26:15.004Z,2.13
2023-01-06T01:28:44.479Z,2.20
2023-01-06T01:31:12.855Z,2.42
2023-01-06T01:33:39.696Z,2.00
2023-01-06T01:36:07.972Z,2.67
2023-01-06T01:38:34.697Z,2.38
2023-01-06T01:41:01.892Z,2.60
2023-01-06T01:43:47.998Z,2.35
2023-01-06T01:46:23.734Z,2.45
2023-01-06T01:48:52.763Z,2.70
2023-01-06T01:51:24.033Z,2.17
2023-01-06T01:53:55.869Z,2.03
2023-01-06T01:56:27.855Z,2.20
2023-01-06T01:58:59.913Z,2.10
2023-01-06T02:01:27.325Z,2.00
2023-01-06T02:03:54.597Z,2.20
2023-01-06T02:06:24.654Z,2.20
2023-01-06T02:09:07.872Z,2.13
2023-01-06T02:11:36.560Z,2.40
2023-01-06T02:14:12.557Z,2.78
2023-01-06T02:17:27.967Z,2.72
2023-01-06T02:20:16.391Z,2.72
2023-01-06T02:23:23.278Z,2.25
2023-01-06T02:26:25.263Z,2.30
2023-01-06T02:29:13.556Z,2.25
2023-01-06T02:31:58.919Z,1.88
2023-01-06T02:34:27.677Z,1.80
2023-01-06T02:37:05.886Z,1.13
2023-01-06T02:40:16.851Z,0.82
2023-01-06T02:43:25.591Z,0.88
2023-01-06T02:46:09.803Z,1.02
2023-01-06T02:49:01.069Z,0.90
2023-01-06T02:51:34.012Z,1.05
2023-01-06T02:54:21.668Z,0.88
2023-01-06T02:56:57.321Z,0.65
2023-01-06T02:59:31.791Z,1.27
2023-01-06T03:02:02.813Z,0.63
2023-01-06T03:04:35.642Z,0.70
2023-01-06T03:07:06.117Z,1.63
2023-01-06T03:09:38.392Z,0.70
2023-01-06T03:12:19.941Z,0.50
2023-01-06T03:14:54.632Z,0.60
2023-01-06T03:17:21.363Z,0.65
2023-01-06T03:19:48.042Z,0.55
2023-01-06T03:22:16.575Z,0.73
2023-01-06T03:24:44.492Z,0.80
2023-01-06T03:27:11.298Z,0.60
2023-01-06T03:29:38.609Z,0.70
2023-01-06T03:32:18.701Z,0.82
2023-01-06T03:35:04.828Z,0.65
2023-01-06T03:37:53.625Z,1.02
2023-01-06T03:40:45.443Z,1.17
2023-01-06T03:43:57.367Z,1.27
2023-01-06T03:46:34.759Z,1.10
2023-01-06T03:49:09.381Z,1.02
2023-01-06T03:51:55.541Z,1.10
2023-01-06T03:54:43.559Z,0.90
2023-01-06T03:57:18.417Z,1.35
2023-01-06T03:59:57.015Z,0.80
2023-01-06T04:02:24.571Z,1.20
2023-01-06T04:05:22.546Z,1.00
2023-01-06T04:07:49.688Z,1.10
2023-01-06T04:10:19.112Z,0.80
2023-01-06T04:12:45.926Z,1.35
2023-01-06T04:15:24.813Z,0.85
2023-01-06T04:17:52.309Z,0.80
2023-01-06T04:20:30.143Z,0.90
2023-01-06T04:22:59.953Z,0.63
2023-01-06T04:25:26.740Z,1.08
2023-01-06T04:27:54.257Z,0.60
2023-01-06T04:30:21.007Z,1.45
2023-01-06T04:32:47.697Z,0.70
2023-01-06T04:35:14.396Z,0.95
2023-01-06T04:37:41.139Z,0.60
2023-01-06T04:40:08.418Z,0.80
2023-01-06T04:42:56.092Z,0.82
2023-01-06T04:45:23.134Z,0.65
2023-01-06T04:47:49.817Z,0.60
2023-01-06T04:50:16.594Z,0.70
2023-01-06T04:52:43.249Z,0.63
2023-01-06T04:55:10.026Z,0.68
2023-01-06T04:57:36.711Z,0.40
2023-01-06T05:00:03.964Z,0.68
2023-01-06T05:02:30.656Z,0.80
2023-01-06T05:04:59.575Z,1.20
2023-01-06T05:07:26.263Z,1.10
2023-01-06T05:09:53.004Z,0.90
2023-01-06T05:12:19.679Z,0.60
2023-01-06T05:14:48.828Z,0.75
2023-01-06T05:17:15.579Z,0.90
2023-01-06T05:19:44.364Z,0.52
2023-01-06T05:22:13.653Z,0.60
2023-01-06T05:24:40.443Z,0.60
2023-01-06T05:27:07.909Z,0.60
2023-01-06T05:29:35.629Z,0.93
2023-01-06T05:32:03.433Z,0.60
2023-01-06T05:34:30.221Z,0.80
2023-01-06T05:36:57.386Z,0.60
2023-01-06T05:39:24.154Z,0.90
2023-01-06T05:41:50.850Z,0.60
2023-01-06T05:44:21.970Z,0.60
2023-01-06T05:46:48.677Z,1.17
2023-01-06T05:49:15.345Z,0.50
2023-01-06T05:51:42.002Z,0.60
2023-01-06T05:54:09.309Z,0.40
2023-01-06T05:56:36.602Z,0.82
2023-01-06T05:59:03.677Z,0.90
2023-01-06T06:01:33.859Z,0.70
2023-01-06T06:04:03.237Z,0.50
2023-01-06T06:06:30.991Z,0.57
2023-01-06T06:08:58.502Z,0.82
2023-01-06T06:11:25.677Z,0.77
2023-01-06T06:13:56.389Z,0.70
2023-01-06T06:16:26.223Z,0.40
2023-01-06T06:21:28.831Z,0.60
2023-01-06T06:23:57.791Z,0.63
2023-01-06T06:26:26.812Z,0.70
2023-01-06T06:28:53.525Z,0.63
2023-01-06T06:31:23.046Z,0.43
2023-01-06T06:33:51.850Z,0.50
2023-01-06T06:36:21.173Z,0.63
2023-01-06T06:38:50.237Z,0.82
2023-01-06T06:41:17.312Z,0.63
2023-01-06T06:43:44.152Z,0.90
2023-01-06T06:46:13.663Z,0.63
2023-01-06T06:48:42.659Z,0.60
2023-01-06T06:51:12.009Z,0.52
2023-01-06T06:53:39.712Z,0.60
2023-01-06T06:56:07.521Z,0.98
2023-01-06T06:58:37.846Z,0.70
2023-01-06T07:01:12.918Z,1.10
2023-01-06T07:03:40.049Z,1.10
2023-01-06T07:06:08.581Z,1.27
2023-01-06T07:08:35.880Z,1.00
2023-01-06T07:11:07.191Z,1.10
2023-01-06T07:13:33.856Z,1.23
2023-01-06T07:16:03.098Z,1.23
2023-01-06T07:18:29.867Z,1.30
2023-01-06T07:20:56.613Z,1.20
2023-01-06T07:23:24.282Z,1.30
2023-01-06T07:25:59.719Z,1.00
2023-01-06T07:28:27.951Z,1.10
2023-01-06T07:30:57.352Z,1.17
2023-01-06T07:33:29.521Z,0.88
2023-01-06T07:35:57.308Z,0.90
2023-01-06T07:38:25.237Z,1.10
2023-01-06T07:40:52.353Z,1.02
2023-01-06T07:43:21.466Z,0.80
2023-01-06T07:45:48.981Z,1.00
2023-01-06T07:48:16.256Z,0.68
2023-01-06T07:50:42.999Z,1.33
2023-01-06T07:53:12.390Z,0.70
2023-01-06T07:55:39.195Z,0.60
2023-01-06T07:58:09.831Z,0.90
2023-01-06T08:00:36.903Z,1.38
2023-01-06T08:03:05.737Z,0.77
2023-01-06T08:05:32.859Z,0.47
2023-01-06T08:07:59.614Z,0.73
2023-01-06T08:10:26.365Z,0.70
2023-01-06T08:12:55.587Z,0.68
2023-01-06T08:15:22.243Z,0.80
2023-01-06T08:17:53.301Z,0.70
2023-01-06T08:20:22.706Z,0.50
2023-01-06T08:22:51.662Z,0.80
2023-01-06T08:25:18.401Z,0.80
2023-01-06T08:27:47.344Z,0.95
2023-01-06T08:30:14.192Z,0.73
2023-01-06T08:32:40.941Z,0.70
2023-01-06T08:35:07.946Z,0.70
2023-01-06T08:37:35.373Z,0.90
2023-01-06T08:40:02.059Z,0.35
2023-01-06T08:42:28.735Z,0.52
2023-01-06T08:44:55.440Z,0.60
2023-01-06T08:47:22.192Z,0.50
2023-01-06T08:49:51.355Z,0.60
2023-01-06T08:52:18.025Z,0.50
2023-01-06T08:54:44.751Z,0.30
2023-01-06T08:57:11.549Z,0.55
2023-01-06T08:59:41.108Z,0.50
2023-01-06T09:02:10.748Z,0.40
2023-01-06T09:04:37.637Z,0.52
2023-01-06T09:07:04.509Z,0.50
2023-01-06T09:09:33.748Z,0.68
2023-01-06T09:12:00.483Z,0.52
2023-01-06T09:14:29.250Z,0.70
2023-01-06T09:16:56.000Z,0.63
2023-01-06T09:19:22.646Z,0.77
2023-01-06T09:21:49.447Z,0.95
2023-01-06T09:24:18.505Z,0.60
2023-01-06T09:26:45.206Z,0.60
2023-01-06T09:29:11.938Z,0.65
2023-01-06T09:31:40.940Z,0.43
2023-01-06T09:34:07.710Z,0.50
2023-01-06T09:36:34.623Z,0.40
2023-01-06T09:39:03.568Z,0.45
2023-01-06T09:41:54.609Z,0.50
2023-01-06T09:44:34.078Z,0.55
2023-01-06T09:47:02.433Z,0.50
2023-01-06T09:49:59.167Z,0.40
2023-01-06T09:52:48.869Z,0.50
2023-01-06T09:55:20.994Z,0.40
2023-01-06T09:57:58.904Z,0.95
2023-01-06T10:00:34.705Z,0.45
2023-01-06T10:03:01.494Z,0.50
2023-01-06T10:05:34.251Z,0.60
2023-01-06T10:08:25.009Z,0.73
2023-01-06T10:11:03.640Z,0.47
2023-01-06T10:13:32.494Z,0.50
2023-01-06T10:16:29.260Z,0.40
2023-01-06T10:18:58.399Z,0.50
2023-01-06T10:21:42.996Z,0.37
2023-01-06T10:24:31.147Z,0.32
2023-01-06T10:27:02.079Z,0.30
2023-01-06T10:29:34.521Z,0.60
2023-01-06T10:32:03.609Z,0.40
2023-01-06T10:34:32.902Z,0.50
2023-01-06T10:37:11.708Z,0.35
2023-01-06T10:39:41.250Z,0.25
2023-01-06T10:43:04.691Z,0.40
2023-01-06T10:45:39.754Z,0.22
2023-01-06T10:48:29.121Z,0.20
2023-01-06T10:50:57.197Z,0.22
2023-01-06T10:53:24.666Z,0.30
2023-01-06T10:55:53.570Z,0.20
2023-01-06T10:58:35.606Z,0.30
2023-01-06T11:01:08.639Z,0.40
2023-01-06T11:03:38.238Z,0.30
2023-01-06T11:06:07.530Z,0.38
2023-01-06T11:08:35.966Z,0.40
2023-01-06T11:11:09.559Z,0.30
2023-01-06T11:13:41.555Z,0.40
2023-01-06T11:16:24.717Z,0.43
2023-01-06T11:19:00.865Z,0.45
2023-01-06T11:21:41.230Z,0.20
2023-01-06T11:24:24.244Z,0.55
2023-01-06T11:26:56.703Z,0.30
2023-01-06T11:29:32.674Z,0.28
2023-01-06T11:32:15.926Z,0.20
2023-01-06T11:34:58.796Z,0.57
2023-01-06T11:42:42.829Z,0.50
2023-01-06T13:02:32.158Z,0.32
2023-01-06T13:05:16.875Z,0.35
2023-01-06T13:08:02.039Z,0.40
2023-01-06T13:10:39.871Z,0.30
2023-01-06T13:13:38.337Z,0.45
2023-01-06T13:16:25.415Z,0.63
2023-01-06T13:19:16.521Z,1.10
2023-01-06T13:21:44.831Z,0.73
2023-01-06T13:24:20.770Z,1.15
2023-01-06T13:26:53.441Z,0.65
2023-01-06T13:29:41.828Z,0.40
2023-01-06T13:32:34.037Z,0.40
2023-01-06T13:35:14.620Z,0.50
2023-01-06T13:38:05.592Z,0.35
2023-01-06T13:40:35.635Z,0.30
2023-01-06T13:43:29.741Z,0.30
2023-01-06T13:46:05.242Z,0.47
2023-01-06T13:48:38.335Z,0.47
2023-01-06T13:51:11.976Z,0.20
2023-01-06T13:53:44.535Z,0.22
2023-01-06T13:56:14.097Z,0.32
2023-01-06T13:58:41.784Z,0.22
2023-01-06T14:01:17.761Z,0.20
2023-01-06T14:03:45.699Z,0.20
2023-01-06T14:06:13.421Z,0.30
2023-01-06T14:08:49.645Z,0.38
2023-01-06T14:11:30.645Z,0.40
2023-01-06T14:14:04.729Z,0.20
2023-01-06T14:16:49.593Z,0.20
2023-01-06T14:19:22.897Z,0.22
2023-01-06T14:21:55.752Z,0.40
2023-01-06T14:24:31.838Z,0.30
2023-01-06T14:27:04.879Z,0.38
2023-01-06T14:29:40.768Z,0.35
2023-01-06T14:32:31.517Z,0.17
2023-01-06T14:35:10.873Z,0.20
2023-01-06T14:37:43.445Z,0.20
2023-01-06T14:40:28.548Z,0.40
2023-01-06T14:43:05.058Z,0.28
2023-01-06T14:45:40.858Z,0.20
2023-01-06T14:48:18.049Z,0.50
2023-01-06T14:50:50.056Z,0.40
2023-01-06T14:53:35.724Z,0.30
2023-01-06T14:56:03.549Z,0.28
2023-01-06T14:58:39.028Z,0.40
2023-01-06T15:01:31.240Z,0.40
2023-01-06T15:04:05.658Z,0.30
2023-01-06T15:06:32.754Z,0.40
2023-01-06T15:09:21.947Z,0.40
2023-01-06T15:11:51.588Z,0.50
2023-01-06T15:14:29.951Z,0.40
2023-01-06T15:16:59.075Z,0.40
2023-01-06T15:19:28.888Z,0.30
2023-01-06T15:24:32.177Z,0.30
2023-01-06T15:27:05.762Z,0.30
2023-01-06T15:29:35.019Z,0.52
2023-01-06T15:32:02.908Z,0.60
2023-01-06T15:34:35.735Z,0.85
2023-01-06T15:37:06.887Z,0.50
2023-01-06T15:39:35.168Z,0.40
2023-01-06T15:42:05.620Z,0.70
2023-01-06T15:44:35.804Z,0.80
2023-01-06T15:47:11.620Z,1.80
2023-01-06T15:49:40.772Z,1.83
2023-01-06T15:52:13.352Z,1.70
2023-01-06T15:54:46.652Z,1.48
2023-01-06T15:57:17.205Z,1.00
2023-01-06T15:59:54.674Z,0.68
2023-01-06T16:02:25.537Z,0.60
2023-01-06T16:04:52.498Z,0.50
2023-01-06T16:07:34.760Z,0.52
2023-01-06T16:10:02.177Z,0.60
2023-01-06T16:12:28.984Z,0.73
2023-01-06T16:14:55.661Z,0.52
2023-01-06T16:17:33.167Z,0.70
2023-01-06T16:20:06.997Z,0.60
2023-01-06T16:22:50.634Z,0.63
2023-01-06T16:25:28.449Z,0.90
2023-01-06T16:27:58.020Z,0.77
2023-01-06T16:30:33.823Z,0.95
2023-01-06T16:33:01.024Z,0.93
2023-01-06T16:35:33.835Z,0.98
2023-01-06T16:38:03.512Z,0.90
2023-01-06T16:40:30.552Z,1.15
2023-01-06T16:43:00.298Z,1.13
2023-01-06T16:45:34.783Z,1.17
2023-01-06T16:48:01.481Z,0.60
2023-01-06T16:50:36.742Z,0.75
2023-01-06T16:53:18.621Z,0.95
2023-01-06T16:55:45.723Z,1.10
2023-01-06T16:58:21.709Z,0.63
2023-01-06T17:00:54.431Z,0.70
2023-01-06T17:03:34.873Z,0.50
2023-01-06T17:06:04.152Z,0.40
2023-01-06T17:08:35.603Z,0.80
2023-01-06T17:11:14.238Z,0.70
2023-01-06T17:13:45.949Z,0.60
2023-01-06T17:16:14.514Z,0.50
2023-01-06T17:19:03.844Z,0.60
2023-01-06T17:21:34.455Z,0.57
2023-01-06T17:24:09.887Z,0.77
2023-01-06T17:26:36.725Z,0.65
2023-01-06T17:29:14.666Z,1.08
2023-01-06T17:31:46.406Z,0.60
2023-01-06T17:34:22.278Z,0.80
2023-01-06T17:36:58.184Z,0.85
2023-01-06T17:39:33.161Z,0.73
2023-01-06T17:42:21.827Z,0.80
2023-01-06T17:44:53.942Z,0.80
2023-01-06T17:47:20.595Z,0.73
2023-01-06T17:50:01.911Z,0.80
2023-01-06T17:52:31.836Z,1.05
2023-01-06T17:55:26.120Z,0.80
2023-01-06T17:57:56.580Z,1.23
2023-01-06T18:00:29.311Z,0.75
2023-01-06T18:03:03.802Z,0.98
2023-01-06T18:05:33.319Z,0.70
2023-01-06T18:08:07.895Z,0.80
2023-01-06T18:10:41.593Z,0.90
2023-01-06T18:13:32.194Z,1.10
2023-01-06T18:16:00.706Z,1.17
2023-01-06T18:18:37.905Z,1.02
2023-01-06T18:21:16.560Z,1.20
2023-01-06T18:23:50.247Z,1.30
2023-01-06T18:26:30.275Z,1.50
2023-01-06T18:29:10.206Z,1.20
2023-01-06T18:34:24.860Z,1.17
2023-01-06T18:36:52.575Z,1.30
2023-01-06T18:39:24.079Z,0.98
2023-01-06T18:42:19.927Z,1.05
2023-01-06T18:44:46.836Z,1.02
2023-01-06T18:47:23.765Z,1.02
2023-01-06T18:49:57.469Z,1.00
2023-01-06T18:52:38.791Z,1.02
2023-01-06T18:55:25.951Z,1.10
2023-01-06T18:57:59.192Z,1.02
2023-01-06T19:00:36.725Z,1.17
2023-01-06T19:03:23.677Z,1.10
2023-01-06T19:05:54.283Z,1.58
2023-01-06T19:08:34.666Z,1.10
2023-01-06T19:11:05.665Z,1.10
2023-01-06T19:13:33.148Z,0.90
2023-01-06T19:16:22.172Z,1.20
2023-01-06T19:18:51.213Z,1.33
2023-01-06T19:21:21.882Z,1.20
2023-01-06T19:23:48.591Z,1.40
2023-01-06T19:26:31.738Z,1.42
2023-01-06T19:29:05.793Z,1.50
2023-01-06T19:31:39.087Z,1.67
2023-01-06T19:34:10.042Z,1.40
2023-01-06T19:36:56.769Z,1.48
2023-01-06T19:39:42.233Z,1.73
2023-01-06T19:42:13.973Z,1.40
2023-01-06T19:44:42.048Z,1.55
2023-01-06T19:47:27.816Z,1.25
2023-01-06T19:50:06.990Z,1.63
2023-01-06T19:52:36.120Z,1.70
2023-01-06T19:55:15.208Z,1.50
2023-01-06T19:57:48.446Z,1.40
2023-01-06T20:00:37.792Z,1.80
2023-01-06T20:03:12.519Z,1.33
2023-01-06T20:05:39.223Z,1.40
2023-01-06T20:08:05.991Z,1.30
2023-01-06T20:10:32.648Z,1.20
2023-01-06T20:12:59.389Z,1.30
2023-01-06T20:15:26.073Z,1.30
2023-01-06T20:17:52.774Z,1.40
2023-01-06T20:20:22.033Z,0.98
2023-01-06T20:22:50.917Z,1.20
2023-01-06T20:25:19.827Z,0.95
2023-01-06T20:27:46.620Z,1.17
2023-01-06T20:30:13.351Z,0.90
2023-01-06T20:32:42.384Z,0.80
2023-01-06T20:35:09.637Z,0.80
2023-01-06T20:37:36.352Z,1.13
2023-01-06T20:40:04.092Z,0.93
2023-01-06T20:42:33.267Z,1.08
2023-01-06T20:45:02.555Z,0.95
2023-01-06T20:47:29.343Z,0.93
2023-01-06T20:49:58.413Z,1.05
2023-01-06T20:52:25.198Z,1.03
2023-01-06T20:54:51.886Z,0.85
2023-01-06T20:57:21.138Z,1.08
2023-01-06T20:59:50.064Z,0.70
2023-01-06T21:02:17.029Z,0.80
2023-01-06T21:04:43.883Z,0.88
2023-01-06T21:07:10.567Z,0.55
2023-01-06T21:09:37.258Z,0.77
2023-01-06T21:12:04.189Z,1.02
2023-01-06T21:14:32.404Z,0.80
2023-01-06T21:17:01.507Z,1.30
2023-01-06T21:19:28.429Z,0.77
2023-01-06T21:21:55.590Z,0.90
2023-01-06T21:24:22.536Z,0.98
2023-01-06T21:26:49.224Z,1.00
2023-01-06T21:29:18.039Z,0.90
2023-01-06T21:31:48.077Z,0.70
2023-01-06T21:34:14.848Z,1.02
2023-01-06T21:36:42.032Z,0.95
2023-01-06T21:39:11.841Z,0.63
2023-01-06T21:41:57.649Z,0.93
2023-01-06T21:44:24.570Z,0.60
2023-01-06T21:46:53.424Z,0.50
2023-01-06T21:49:24.931Z,0.82
2023-01-06T21:51:54.182Z,0.70
2023-01-06T21:54:21.246Z,0.60
2023-01-06T21:56:49.159Z,1.10
2023-01-06T21:59:16.354Z,0.55
2023-01-06T22:01:45.667Z,0.98
2023-01-06T22:04:14.716Z,0.70
2023-01-06T22:06:45.556Z,0.80
2023-01-06T22:09:15.151Z,0.70
2023-01-06T22:11:42.820Z,1.05
2023-01-06T22:14:11.373Z,0.90
2023-01-06T22:16:40.010Z,0.95
2023-01-06T22:19:07.906Z,0.70
2023-01-06T22:21:36.414Z,1.10
2023-01-06T22:24:07.592Z,0.80
2023-01-06T22:26:35.847Z,1.20
2023-01-06T22:29:08.252Z,1.00
2023-01-06T22:31:36.191Z,0.73
2023-01-06T22:34:03.532Z,1.00
2023-01-06T22:36:30.249Z,0.85
2023-01-06T22:38:59.438Z,0.90
2023-01-06T22:41:26.124Z,0.60
2023-01-06T22:43:52.898Z,0.85
2023-01-06T22:46:19.762Z,0.85
2023-01-06T22:48:46.558Z,0.93
2023-01-06T22:51:13.528Z,0.90
2023-01-06T22:53:40.250Z,0.90
2023-01-06T22:56:09.833Z,0.90
2023-01-06T22:58:40.934Z,1.15
2023-01-06T23:01:13.010Z,1.00
2023-01-06T23:03:42.349Z,1.10
2023-01-06T23:06:13.992Z,1.10
2023-01-06T23:08:58.501Z,1.35
2023-01-06T23:11:27.917Z,1.20
2023-01-06T23:13:58.180Z,1.40
2023-01-06T23:16:30.036Z,1.40
2023-01-06T23:18:56.964Z,1.58
2023-01-06T23:21:25.197Z,1.05
2023-01-06T23:23:52.987Z,1.30
2023-01-06T23:26:28.984Z,1.30
2023-01-06T23:28:56.735Z,3.33
2023-01-06T23:31:26.673Z,3.05
2023-01-06T23:33:55.947Z,2.28
2023-01-06T23:36:24.372Z,2.30
2023-01-06T23:38:51.854Z,1.70
2023-01-06T23:41:24.513Z,2.05
2023-01-06T23:43:52.073Z,1.42
2023-01-06T23:46:22.163Z,1.50
2023-01-06T23:48:52.133Z,1.60
2023-01-06T23:53:48.197Z,1.40
2023-01-06T23:56:20.323Z,1.30
2023-01-06T23:58:49.171Z,1.00
